KRUG

Rugby Municipal Airport

Rugby, North Dakota, USA
METAR KRUG 120035Z AUTO 26005KT M1/4SM FZFG VV000 M09/M09 A2979 RMK AO2
Observed Flight Rules
Dec-12 @ 00:35 UTC (7 minutes ago) Instrument Flight Rules
Wind Visibility Clouds Conditions
260° at 5 knots 1/4 miles
  • Vertical visibility
  • Freezing
  • Fog
Temperatures Readings
Current -9°C / 16°F
Dewpoint -9°C / 16°F
Humidity 100%
Altimeter 29.79" Hg
Pressure 1009 hPa
Elevation 472
METAR KRUG 120035Z AUTO 26005KT M1/4SM FZFG VV000 M09/M09 A2979 RMK AO2
Observed Flight Rules
Dec-12 @ 00:35 UTC
(7 minutes ago)
LIFR
Wind Visibility
260° at 5 knots 1/4 miles
Clouds
  • Vertical visibility
Conditions
  • Freezing
  • Fog
Temperature Dewpoint
-9°C / 16°F -9°C / 16°F
Humidity Altimeter Pressure
100% 29.79" Hg 1009 hPa